sensor_id;sensor_type;location;lat;lon;timestamp;pressure;altitude;pressure_sealevel;temperature;humidity
71573;BME280;59408;51.032;9.410;2024-01-15T00:01:29;97534.03;;;-3.40;100.00
71573;BME280;59408;51.032;9.410;2024-01-15T00:03:56;97526.03;;;-3.40;100.00
71573;BME280;59408;51.032;9.410;2024-01-15T00:06:24;97522.00;;;-3.37;100.00
71573;BME280;59408;51.032;9.410;2024-01-15T00:08:51;97513.69;;;-3.36;100.00
71573;BME280;59408;51.032;9.410;2024-01-15T00:11:18;97518.53;;;-3.38;100.00
71573;BME280;59408;51.032;9.410;2024-01-15T00:13:44;97507.56;;;-3.36;100.00
71573;BME280;59408;51.032;9.410;2024-01-15T00:16:13;97523.56;;;-3.36;100.00
71573;BME280;59408;51.032;9.410;2024-01-15T00:18:39;97523.56;;;-3.36;100.00
71573;BME280;59408;51.032;9.410;2024-01-15T00:21:06;97514.78;;;-3.37;100.00
71573;BME280;59408;51.032;9.410;2024-01-15T00:23:32;97511.63;;;-3.39;100.00
71573;BME280;59408;51.032;9.410;2024-01-15T00:25:59;97509.44;;;-3.37;100.00
71573;BME280;59408;51.032;9.410;2024-01-15T00:28:26;97493.44;;;-3.37;100.00
71573;BME280;59408;51.032;9.410;2024-01-15T00:30:52;97505.22;;;-3.38;100.00
71573;BME280;59408;51.032;9.410;2024-01-15T00:33:20;97495.34;;;-3.37;100.00
71573;BME280;59408;51.032;9.410;2024-01-15T00:35:47;97484.19;;;-3.39;100.00
71573;BME280;59408;51.032;9.410;2024-01-15T00:38:13;97499.38;;;-3.40;100.00
71573;BME280;59408;51.032;9.410;2024-01-15T00:40:40;97488.47;;;-3.43;100.00
71573;BME280;59408;51.032;9.410;2024-01-15T00:43:06;97490.59;;;-3.40;100.00
71573;BME280;59408;51.032;9.410;2024-01-15T00:45:33;97479.63;;;-3.39;100.00
71573;BME280;59408;51.032;9.410;2024-01-15T00:48:00;97464.44;;;-3.38;100.00
71573;BME280;59408;51.032;9.410;2024-01-15T00:50:28;97472.44;;;-3.38;100.00
71573;BME280;59408;51.032;9.410;2024-01-15T00:52:55;97464.22;;;-3.42;100.00
71573;BME280;59408;51.032;9.410;2024-01-15T00:55:21;97455.66;;;-3.39;100.00
71573;BME280;59408;51.032;9.410;2024-01-15T00:57:48;97464.13;;;-3.37;100.00
71573;BME280;59408;51.032;9.410;2024-01-15T01:00:15;97467.91;;;-3.38;100.00
71573;BME280;59408;51.032;9.410;2024-01-15T01:02:42;97457.72;;;-3.36;100.00
71573;BME280;59408;51.032;9.410;2024-01-15T01:05:09;97461.47;;;-3.37;100.00
71573;BME280;59408;51.032;9.410;2024-01-15T01:07:37;97458.31;;;-3.39;100.00
71573;BME280;59408;51.032;9.410;2024-01-15T01:10:04;97458.31;;;-3.39;100.00
71573;BME280;59408;51.032;9.410;2024-01-15T01:12:31;97465.00;;;-3.41;100.00
71573;BME280;59408;51.032;9.410;2024-01-15T01:14:57;97464.78;;;-3.45;100.00
71573;BME280;59408;51.032;9.410;2024-01-15T01:17:24;97457.66;;;-3.49;100.00
71573;BME280;59408;51.032;9.410;2024-01-15T01:19:51;97453.91;;;-3.48;100.00
71573;BME280;59408;51.032;9.410;2024-01-15T01:22:18;97469.63;;;-3.47;100.00
71573;BME280;59408;51.032;9.410;2024-01-15T01:24:45;97469.03;;;-3.44;100.00
71573;BME280;59408;51.032;9.410;2024-01-15T01:27:12;97454.44;;;-3.46;100.00
71573;BME280;59408;51.032;9.410;2024-01-15T01:29:39;97451.44;;;-3.45;100.00
71573;BME280;59408;51.032;9.410;2024-01-15T01:32:06;97466.09;;;-3.42;100.00
71573;BME280;59408;51.032;9.410;2024-01-15T01:34:32;97477.31;;;-3.45;100.00
71573;BME280;59408;51.032;9.410;2024-01-15T01:37:00;97451.69;;;-3.41;100.00
71573;BME280;59408;51.032;9.410;2024-01-15T01:39:26;97469.25;;;-3.40;100.00
71573;BME280;59408;51.032;9.410;2024-01-15T01:41:54;97467.38;;;-3.40;100.00
71573;BME280;59408;51.032;9.410;2024-01-15T01:44:21;97465.00;;;-3.41;100.00
71573;BME280;59408;51.032;9.410;2024-01-15T01:46:48;97462.34;;;-3.41;100.00
71573;BME280;59408;51.032;9.410;2024-01-15T01:49:14;97472.50;;;-3.43;100.00
71573;BME280;59408;51.032;9.410;2024-01-15T01:51:41;97462.34;;;-3.41;100.00
71573;BME280;59408;51.032;9.410;2024-01-15T01:54:08;97454.34;;;-3.41;100.00
71573;BME280;59408;51.032;9.410;2024-01-15T01:56:35;97454.34;;;-3.41;100.00
71573;BME280;59408;51.032;9.410;2024-01-15T01:59:03;97446.88;;;-3.39;100.00
71573;BME280;59408;51.032;9.410;2024-01-15T02:01:31;97438.59;;;-3.38;100.00
71573;BME280;59408;51.032;9.410;2024-01-15T02:03:58;97456.13;;;-3.37;100.00
71573;BME280;59408;51.032;9.410;2024-01-15T02:06:25;97445.97;;;-3.35;100.00
71573;BME280;59408;51.032;9.410;2024-01-15T02:08:52;97447.84;;;-3.35;100.00
71573;BME280;59408;51.032;9.410;2024-01-15T02:11:18;97449.72;;;-3.36;100.00
71573;BME280;59408;51.032;9.410;2024-01-15T02:13:45;97455.81;;;-3.30;100.00
71573;BME280;59408;51.032;9.410;2024-01-15T02:16:13;97444.06;;;-3.29;100.00
71573;BME280;59408;51.032;9.410;2024-01-15T02:18:40;97444.13;;;-3.34;100.00
71573;BME280;59408;51.032;9.410;2024-01-15T02:21:08;97452.91;;;-3.34;100.00
71573;BME280;59408;51.032;9.410;2024-01-15T02:23:36;97456.38;;;-3.33;100.00
71573;BME280;59408;51.032;9.410;2024-01-15T02:26:04;97442.19;;;-3.29;100.00
71573;BME280;59408;51.032;9.410;2024-01-15T02:28:32;97440.59;;;-3.30;100.00
71573;BME280;59408;51.032;9.410;2024-01-15T02:30:59;97446.41;;;-3.28;100.00
71573;BME280;59408;51.032;9.410;2024-01-15T02:33:26;97442.19;;;-3.29;100.00
71573;BME280;59408;51.032;9.410;2024-01-15T02:35:53;97439.22;;;-3.27;100.00
71573;BME280;59408;51.032;9.410;2024-01-15T02:38:19;97446.63;;;-3.24;100.00
71573;BME280;59408;51.032;9.410;2024-01-15T02:40:47;97449.59;;;-3.26;100.00
71573;BME280;59408;51.032;9.410;2024-01-15T02:43:14;97445.84;;;-3.24;100.00
71573;BME280;59408;51.032;9.410;2024-01-15T02:45:40;97455.44;;;-3.23;100.00
71573;BME280;59408;51.032;9.410;2024-01-15T02:48:07;97461.56;;;-3.23;100.00
71573;BME280;59408;51.032;9.410;2024-01-15T02:50:33;97459.75;;;-3.28;100.00
71573;BME280;59408;51.032;9.410;2024-01-15T02:53:00;97453.66;;;-3.28;100.00
71573;BME280;59408;51.032;9.410;2024-01-15T02:55:27;97468.53;;;-3.27;100.00
71573;BME280;59408;51.032;9.410;2024-01-15T02:57:55;97478.13;;;-3.26;100.00
71573;BME280;59408;51.032;9.410;2024-01-15T03:00:21;97477.03;;;-3.25;100.00
71573;BME280;59408;51.032;9.410;2024-01-15T03:02:50;97467.47;;;-3.26;100.00
71573;BME280;59408;51.032;9.410;2024-01-15T03:05:16;97472.00;;;-3.27;100.00
71573;BME280;59408;51.032;9.410;2024-01-15T03:07:43;97481.59;;;-3.26;100.00
71573;BME280;59408;51.032;9.410;2024-01-15T03:10:10;97475.75;;;-3.28;100.00
71573;BME280;59408;51.032;9.410;2024-01-15T03:12:36;97489.38;;;-3.29;100.00
71573;BME280;59408;51.032;9.410;2024-01-15T03:15:06;97479.78;;;-3.30;100.00
71573;BME280;59408;51.032;9.410;2024-01-15T03:17:32;97479.56;;;-3.34;100.00
71573;BME280;59408;51.032;9.410;2024-01-15T03:19:59;97484.88;;;-3.34;100.00
71573;BME280;59408;51.032;9.410;2024-01-15T03:22:26;97474.22;;;-3.34;100.00
71573;BME280;59408;51.032;9.410;2024-01-15T03:24:53;97482.22;;;-3.34;100.00
71573;BME280;59408;51.032;9.410;2024-01-15T03:27:20;97479.19;;;-3.27;100.00
71573;BME280;59408;51.032;9.410;2024-01-15T03:29:47;97479.50;;;-3.29;100.00
71573;BME280;59408;51.032;9.410;2024-01-15T03:32:14;97466.22;;;-3.34;100.00
71573;BME280;59408;51.032;9.410;2024-01-15T03:34:41;97466.09;;;-3.42;100.00
71573;BME280;59408;51.032;9.410;2024-01-15T03:37:08;97471.97;;;-3.45;100.00
71573;BME280;59408;51.032;9.410;2024-01-15T03:39:34;97467.44;;;-3.45;100.00
71573;BME280;59408;51.032;9.410;2024-01-15T03:42:01;97465.09;;;-3.46;100.00
71573;BME280;59408;51.032;9.410;2024-01-15T03:44:27;97453.13;;;-3.49;100.00
71573;BME280;59408;51.032;9.410;2024-01-15T03:46:54;97462.47;;;-3.51;100.00
71573;BME280;59408;51.032;9.410;2024-01-15T03:49:22;97461.41;;;-3.50;100.00
71573;BME280;59408;51.032;9.410;2024-01-15T03:51:49;97456.34;;;-3.52;100.00
71573;BME280;59408;51.032;9.410;2024-01-15T03:54:15;97457.69;;;-3.54;100.00
71573;BME280;59408;51.032;9.410;2024-01-15T03:56:45;97453.25;;;-3.59;100.00
71573;BME280;59408;51.032;9.410;2024-01-15T03:59:12;97456.72;;;-3.58;100.00
71573;BME280;59408;51.032;9.410;2024-01-15T04:01:38;97464.34;;;-3.52;100.00
71573;BME280;59408;51.032;9.410;2024-01-15T04:04:05;97468.59;;;-3.51;100.00
71573;BME280;59408;51.032;9.410;2024-01-15T04:06:33;97458.44;;;-3.49;100.00
71573;BME280;59408;51.032;9.410;2024-01-15T04:09:00;97456.78;;;-3.45;100.00
71573;BME280;59408;51.032;9.410;2024-01-15T04:11:26;97450.09;;;-3.42;100.00
71573;BME280;59408;51.032;9.410;2024-01-15T04:13:53;97458.59;;;-3.40;100.00
71573;BME280;59408;51.032;9.410;2024-01-15T04:16:19;97459.91;;;-3.38;100.00
71573;BME280;59408;51.032;9.410;2024-01-15T04:18:46;97449.16;;;-3.33;100.00
71573;BME280;59408;51.032;9.410;2024-01-15T04:21:12;97447.56;;;-3.34;100.00
71573;BME280;59408;51.032;9.410;2024-01-15T04:23:40;97442.47;;;-3.30;100.00
71573;BME280;59408;51.032;9.410;2024-01-15T04:26:07;97451.97;;;-3.24;100.00
71573;BME280;59408;51.032;9.410;2024-01-15T04:28:33;97443.19;;;-3.24;100.00
71573;BME280;59408;51.032;9.410;2024-01-15T04:31:00;97439.34;;;-3.18;100.00
71573;BME280;59408;51.032;9.410;2024-01-15T04:33:27;97444.63;;;-3.13;100.00
71573;BME280;59408;51.032;9.410;2024-01-15T04:35:53;97443.56;;;-3.12;100.00
71573;BME280;59408;51.032;9.410;2024-01-15T04:38:20;97445.34;;;-3.08;100.00
71573;BME280;59408;51.032;9.410;2024-01-15T04:40:48;97444.25;;;-3.07;100.00
71573;BME280;59408;51.032;9.410;2024-01-15T04:43:14;97446.91;;;-3.07;100.00
71573;BME280;59408;51.032;9.410;2024-01-15T04:45:41;97449.59;;;-3.07;100.00
71573;BME280;59408;51.032;9.410;2024-01-15T04:48:07;97446.06;;;-3.02;100.00
71573;BME280;59408;51.032;9.410;2024-01-15T04:50:34;97434.00;;;-3.00;100.00
71573;BME280;59408;51.032;9.410;2024-01-15T04:53:00;97431.06;;;-2.98;100.00
71573;BME280;59408;51.032;9.410;2024-01-15T04:55:27;97432.88;;;-2.94;100.00
71573;BME280;59408;51.032;9.410;2024-01-15T04:57:55;97425.94;;;-2.95;100.00
71573;BME280;59408;51.032;9.410;2024-01-15T05:00:21;97416.94;;;-2.99;100.00
71573;BME280;59408;51.032;9.410;2024-01-15T05:02:48;97419.81;;;-2.95;100.00
71573;BME280;59408;51.032;9.410;2024-01-15T05:05:15;97410.13;;;-2.91;100.00
71573;BME280;59408;51.032;9.410;2024-01-15T05:07:41;97417.56;;;-2.88;100.00
71573;BME280;59408;51.032;9.410;2024-01-15T05:10:08;97409.28;;;-2.86;100.00
71573;BME280;59408;51.032;9.410;2024-01-15T05:12:34;97414.22;;;-2.80;100.00
71573;BME280;59408;51.032;9.410;2024-01-15T05:15:04;97407.31;;;-2.81;100.00
71573;BME280;59408;51.032;9.410;2024-01-15T05:17:31;97403.25;;;-2.78;100.00
71573;BME280;59408;51.032;9.410;2024-01-15T05:19:58;97392.53;;;-2.73;100.00
71573;BME280;59408;51.032;9.410;2024-01-15T05:22:25;97400.44;;;-2.68;100.00
71573;BME280;59408;51.032;9.410;2024-01-15T05:24:51;97415.66;;;-2.69;100.00
71573;BME280;59408;51.032;9.410;2024-01-15T05:27:18;97407.34;;;-2.67;100.00
71573;BME280;59408;51.032;9.410;2024-01-15T05:29:45;97414.78;;;-2.64;100.00
71573;BME280;59408;51.032;9.410;2024-01-15T05:32:13;97406.47;;;-2.63;100.00
71573;BME280;59408;51.032;9.410;2024-01-15T05:34:39;97407.75;;;-2.60;100.00
71573;BME280;59408;51.032;9.410;2024-01-15T05:37:06;97396.78;;;-2.59;100.00
71573;BME280;59408;51.032;9.410;2024-01-15T05:39:32;97416.06;;;-2.62;100.00
71573;BME280;59408;51.032;9.410;2024-01-15T05:41:59;97406.47;;;-2.63;100.00
71573;BME280;59408;51.032;9.410;2024-01-15T05:44:25;97398.97;;;-2.61;100.00
71573;BME280;59408;51.032;9.410;2024-01-15T05:46:53;97400.53;;;-2.60;100.00
71573;BME280;59408;51.032;9.410;2024-01-15T05:49:21;97399.47;;;-2.59;100.00
71573;BME280;59408;51.032;9.410;2024-01-15T05:51:48;97390.66;;;-2.59;100.00
71573;BME280;59408;51.032;9.410;2024-01-15T05:54:14;97408.56;;;-2.60;100.00
71573;BME280;59408;51.032;9.410;2024-01-15T05:56:41;97390.66;;;-2.59;100.00
71573;BME280;59408;51.032;9.410;2024-01-15T05:59:07;97389.06;;;-2.60;100.00
71573;BME280;59408;51.032;9.410;2024-01-15T06:01:37;97387.78;;;-2.63;100.00
71573;BME280;59408;51.032;9.410;2024-01-15T06:04:04;97389.19;;;-2.65;100.00
71573;BME280;59408;51.032;9.410;2024-01-15T06:06:32;97393.44;;;-2.64;100.00
71573;BME280;59408;51.032;9.410;2024-01-15T06:08:58;97390.25;;;-2.66;100.00
71573;BME280;59408;51.032;9.410;2024-01-15T06:11:29;97400.72;;;-2.70;100.00
71573;BME280;59408;51.032;9.410;2024-01-15T06:13:55;97400.44;;;-2.68;100.00
71573;BME280;59408;51.032;9.410;2024-01-15T06:16:23;97394.50;;;-2.65;100.00
71573;BME280;59408;51.032;9.410;2024-01-15T06:18:50;97397.38;;;-2.62;100.00
71573;BME280;59408;51.032;9.410;2024-01-15T06:21:17;97398.44;;;-2.63;100.00
71573;BME280;59408;51.032;9.410;2024-01-15T06:23:44;97384.31;;;-2.63;100.00
71573;BME280;59408;51.032;9.410;2024-01-15T06:26:11;97386.19;;;-2.64;100.00
71573;BME280;59408;51.032;9.410;2024-01-15T06:28:38;97383.53;;;-2.64;100.00
71573;BME280;59408;51.032;9.410;2024-01-15T06:31:06;97378.28;;;-2.69;100.00
71573;BME280;59408;51.032;9.410;2024-01-15T06:33:32;97381.19;;;-2.65;100.00
71573;BME280;59408;51.032;9.410;2024-01-15T06:35:59;97380.09;;;-2.64;100.00
71573;BME280;59408;51.032;9.410;2024-01-15T06:38:26;97380.09;;;-2.64;100.00
71573;BME280;59408;51.032;9.410;2024-01-15T06:40:54;97382.25;;;-2.66;100.00
71573;BME280;59408;51.032;9.410;2024-01-15T06:43:20;97389.97;;;-2.65;100.00
71573;BME280;59408;51.032;9.410;2024-01-15T06:45:47;97387.50;;;-2.61;100.00
71573;BME280;59408;51.032;9.410;2024-01-15T06:48:13;97392.81;;;-2.61;100.00
71573;BME280;59408;51.032;9.410;2024-01-15T06:50:40;97401.84;;;-2.57;100.00
71573;BME280;59408;51.032;9.410;2024-01-15T06:53:06;97391.16;;;-2.57;100.00
71573;BME280;59408;51.032;9.410;2024-01-15T06:55:33;97398.09;;;-2.56;100.00
71573;BME280;59408;51.032;9.410;2024-01-15T06:58:01;97395.22;;;-2.60;100.00
71573;BME280;59408;51.032;9.410;2024-01-15T07:00:28;97398.09;;;-2.56;100.00
71573;BME280;59408;51.032;9.410;2024-01-15T07:02:54;97395.59;;;-2.53;100.00
71573;BME280;59408;51.032;9.410;2024-01-15T07:05:21;97390.88;;;-2.56;100.00
71573;BME280;59408;51.032;9.410;2024-01-15T07:07:48;97391.34;;;-2.54;100.00
71573;BME280;59408;51.032;9.410;2024-01-15T07:10:15;97390.88;;;-2.56;100.00
71573;BME280;59408;51.032;9.410;2024-01-15T07:12:42;97391.34;;;-2.54;100.00
71573;BME280;59408;51.032;9.410;2024-01-15T07:15:11;97402.81;;;-2.53;100.00
71573;BME280;59408;51.032;9.410;2024-01-15T07:17:37;97401.44;;;-2.51;100.00
71573;BME280;59408;51.032;9.410;2024-01-15T07:20:05;97391.84;;;-2.52;100.00
71573;BME280;59408;51.032;9.410;2024-01-15T07:22:32;97416.88;;;-2.47;100.00
71573;BME280;59408;51.032;9.410;2024-01-15T07:24:58;97407.81;;;-2.46;100.00
71573;BME280;59408;51.032;9.410;2024-01-15T07:27:25;97406.41;;;-2.44;100.00
71573;BME280;59408;51.032;9.410;2024-01-15T07:29:51;97395.53;;;-2.47;100.00
71573;BME280;59408;51.032;9.410;2024-01-15T07:32:19;97399.78;;;-2.46;100.00
71573;BME280;59408;51.032;9.410;2024-01-15T07:34:46;97403.44;;;-2.42;100.00
71573;BME280;59408;51.032;9.410;2024-01-15T07:37:12;97410.66;;;-2.43;100.00
71573;BME280;59408;51.032;9.410;2024-01-15T07:39:39;97400.47;;;-2.41;100.00
71573;BME280;59408;51.032;9.410;2024-01-15T07:42:07;97410.38;;;-2.41;100.00
71573;BME280;59408;51.032;9.410;2024-01-15T07:44:33;97412.75;;;-2.40;100.00
71573;BME280;59408;51.032;9.410;2024-01-15T07:47:00;97408.69;;;-2.37;100.00
71573;BME280;59408;51.032;9.410;2024-01-15T07:49:27;97405.25;;;-2.38;100.00
71573;BME280;59408;51.032;9.410;2024-01-15T07:51:54;97418.47;;;-2.33;100.00
71573;BME280;59408;51.032;9.410;2024-01-15T07:54:21;97420.34;;;-2.33;100.00
71573;BME280;59408;51.032;9.410;2024-01-15T07:56:54;97418.19;;;-2.31;100.00
71573;BME280;59408;51.032;9.410;2024-01-15T07:59:21;97418.47;;;-2.33;100.00
71573;BME280;59408;51.032;9.410;2024-01-15T08:01:47;97421.66;;;-2.31;100.00
71573;BME280;59408;51.032;9.410;2024-01-15T08:04:14;97425.63;;;-2.28;100.00
71573;BME280;59408;51.032;9.410;2024-01-15T08:06:42;97416.50;;;-2.27;100.00
71573;BME280;59408;51.032;9.410;2024-01-15T08:09:09;97425.81;;;-2.25;100.00
71573;BME280;59408;51.032;9.410;2024-01-15T08:11:35;97426.59;;;-2.24;100.00
71573;BME280;59408;51.032;9.410;2024-01-15T08:14:02;97424.31;;;-2.17;100.00
71573;BME280;59408;51.032;9.410;2024-01-15T08:16:28;97424.13;;;-2.07;100.00
71573;BME280;59408;51.032;9.410;2024-01-15T08:18:55;97429.09;;;-2.00;100.00
71573;BME280;59408;51.032;9.410;2024-01-15T08:21:22;97412.47;;;-1.97;100.00
71573;BME280;59408;51.032;9.410;2024-01-15T08:23:49;97403.06;;;-1.95;100.00
71573;BME280;59408;51.032;9.410;2024-01-15T08:26:16;97408.31;;;-1.76;100.00
71573;BME280;59408;51.032;9.410;2024-01-15T08:28:42;97409.69;;;-1.65;100.00
71573;BME280;59408;51.032;9.410;2024-01-15T08:31:09;97407.38;;;-1.58;100.00
71573;BME280;59408;51.032;9.410;2024-01-15T08:33:35;97409.69;;;-1.65;100.00
71573;BME280;59408;51.032;9.410;2024-01-15T08:36:03;97410.94;;;-1.62;100.00
71573;BME280;59408;51.032;9.410;2024-01-15T08:38:29;97408.47;;;-1.59;100.00
71573;BME280;59408;51.032;9.410;2024-01-15T08:40:57;97404.72;;;-1.58;100.00
71573;BME280;59408;51.032;9.410;2024-01-15T08:43:24;97400.13;;;-1.44;100.00
71573;BME280;59408;51.032;9.410;2024-01-15T08:45:50;97399.31;;;-1.44;100.00
71573;BME280;59408;51.032;9.410;2024-01-15T08:48:17;97392.25;;;-1.62;100.00
71573;BME280;59408;51.032;9.410;2024-01-15T08:50:43;97390.19;;;-1.65;100.00
71573;BME280;59408;51.032;9.410;2024-01-15T08:53:10;97397.22;;;-1.69;100.00
71573;BME280;59408;51.032;9.410;2024-01-15T08:55:36;97389.97;;;-1.69;100.00
71573;BME280;59408;51.032;9.410;2024-01-15T08:58:05;97410.78;;;-1.66;100.00
71573;BME280;59408;51.032;9.410;2024-01-15T09:00:31;97400.66;;;-1.69;100.00
71573;BME280;59408;51.032;9.410;2024-01-15T09:03:00;97394.31;;;-1.59;100.00
71573;BME280;59408;51.032;9.410;2024-01-15T09:05:26;97396.63;;;-1.30;100.00
71573;BME280;59408;51.032;9.410;2024-01-15T09:07:53;97399.38;;;-1.00;100.00
71573;BME280;59408;51.032;9.410;2024-01-15T09:10:19;97403.59;;;-0.85;100.00
71573;BME280;59408;51.032;9.410;2024-01-15T09:12:46;97395.75;;;-1.04;100.00
71573;BME280;59408;51.032;9.410;2024-01-15T09:15:15;97381.81;;;-1.14;100.00
71573;BME280;59408;51.032;9.410;2024-01-15T09:17:41;97391.41;;;-1.13;100.00
71573;BME280;59408;51.032;9.410;2024-01-15T09:20:09;97391.41;;;-1.13;100.00
71573;BME280;59408;51.032;9.410;2024-01-15T09:22:38;97398.84;;;-1.10;100.00
71573;BME280;59408;51.032;9.410;2024-01-15T09:25:05;97389.34;;;-1.16;100.00
71573;BME280;59408;51.032;9.410;2024-01-15T09:27:31;97390.25;;;-0.98;100.00
71573;BME280;59408;51.032;9.410;2024-01-15T09:29:58;97400.66;;;-0.97;100.00
71573;BME280;59408;51.032;9.410;2024-01-15T09:32:26;97400.78;;;-1.02;100.00
71573;BME280;59408;51.032;9.410;2024-01-15T09:34:52;97397.81;;;-1.01;100.00
71573;BME280;59408;51.032;9.410;2024-01-15T09:37:19;97398.84;;;-1.10;100.00
71573;BME280;59408;51.032;9.410;2024-01-15T09:40:06;97389.41;;;-1.08;100.00
71573;BME280;59408;51.032;9.410;2024-01-15T09:42:35;97391.97;;;-1.03;100.00
71573;BME280;59408;51.032;9.410;2024-01-15T09:45:01;97394.66;;;-1.03;100.00
71573;BME280;59408;51.032;9.410;2024-01-15T09:47:30;97402.78;;;-1.08;100.00
71573;BME280;59408;51.032;9.410;2024-01-15T09:49:56;97400.06;;;-0.94;100.00
71573;BME280;59408;51.032;9.410;2024-01-15T09:52:24;97410.09;;;-0.77;100.00
71573;BME280;59408;51.032;9.410;2024-01-15T09:54:51;97409.47;;;-0.96;100.00
71573;BME280;59408;51.032;9.410;2024-01-15T09:57:19;97415.38;;;-1.08;100.00
71573;BME280;59408;51.032;9.410;2024-01-15T09:59:47;97413.75;;;-0.95;100.00
71573;BME280;59408;51.032;9.410;2024-01-15T10:02:14;97413.97;;;-1.06;100.00
71573;BME280;59408;51.032;9.410;2024-01-15T10:04:42;97409.16;;;-1.17;100.00
71573;BME280;59408;51.032;9.410;2024-01-15T10:07:10;97418.59;;;-1.20;100.00
71573;BME280;59408;51.032;9.410;2024-01-15T10:09:38;97407.81;;;-1.28;100.00
71573;BME280;59408;51.032;9.410;2024-01-15T10:12:06;97407.69;;;-1.23;100.00
71573;BME280;59408;51.032;9.410;2024-01-15T10:14:32;97392.72;;;-1.11;100.00
71573;BME280;59408;51.032;9.410;2024-01-15T10:16:59;97388.81;;;-1.05;100.00
71573;BME280;59408;51.032;9.410;2024-01-15T10:19:26;97387.81;;;-1.09;100.00
71573;BME280;59408;51.032;9.410;2024-01-15T10:21:54;97383.88;;;-1.11;100.00
71573;BME280;59408;51.032;9.410;2024-01-15T10:24:20;97378.31;;;-1.01;100.00
71573;BME280;59408;51.032;9.410;2024-01-15T10:26:47;97381.09;;;-0.84;100.00
71573;BME280;59408;51.032;9.410;2024-01-15T10:29:14;97381.09;;;-0.84;100.00
71573;BME280;59408;51.032;9.410;2024-01-15T10:31:41;97375.84;;;-0.89;100.00
71573;BME280;59408;51.032;9.410;2024-01-15T10:34:12;97374.94;;;-1.07;100.00
71573;BME280;59408;51.032;9.410;2024-01-15T10:36:39;97364.47;;;-1.17;100.00
71573;BME280;59408;51.032;9.410;2024-01-15T10:39:07;97357.38;;;-1.21;100.00
71573;BME280;59408;51.032;9.410;2024-01-15T10:41:34;97363.16;;;-1.28;100.00
71573;BME280;59408;51.032;9.410;2024-01-15T10:44:01;97357.75;;;-1.36;100.00
71573;BME280;59408;51.032;9.410;2024-01-15T10:46:27;97354.88;;;-1.40;100.00
71573;BME280;59408;51.032;9.410;2024-01-15T10:48:54;97359.28;;;-1.35;100.00
71573;BME280;59408;51.032;9.410;2024-01-15T10:51:21;97356.09;;;-1.24;100.00
71573;BME280;59408;51.032;9.410;2024-01-15T10:53:48;97356.66;;;-1.13;100.00
71573;BME280;59408;51.032;9.410;2024-01-15T10:56:16;97341.78;;;-0.97;100.00
71573;BME280;59408;51.032;9.410;2024-01-15T10:58:45;97348.47;;;-1.08;100.00
71573;BME280;59408;51.032;9.410;2024-01-15T11:01:11;97341.31;;;-0.99;100.00
71573;BME280;59408;51.032;9.410;2024-01-15T11:03:39;97342.34;;;-1.09;100.00
71573;BME280;59408;51.032;9.410;2024-01-15T11:06:16;97341.31;;;-1.21;100.00
71573;BME280;59408;51.032;9.410;2024-01-15T11:08:42;97345.97;;;-1.27;100.00
71573;BME280;59408;51.032;9.410;2024-01-15T11:11:09;97331.72;;;-1.22;100.00
71573;BME280;59408;51.032;9.410;2024-01-15T11:13:43;97331.16;;;-1.33;100.00
71573;BME280;59408;51.032;9.410;2024-01-15T11:16:14;97331.09;;;-1.42;100.00
71573;BME280;59408;51.032;9.410;2024-01-15T11:18:41;97319.75;;;-1.47;100.00
71573;BME280;59408;51.032;9.410;2024-01-15T11:21:24;97321.13;;;-1.50;100.00
71573;BME280;59408;51.032;9.410;2024-01-15T11:23:53;97329.75;;;-1.53;100.00
71573;BME280;59408;51.032;9.410;2024-01-15T11:26:27;97325.19;;;-1.52;100.00
71573;BME280;59408;51.032;9.410;2024-01-15T11:28:57;97326.78;;;-1.51;100.00
71573;BME280;59408;51.032;9.410;2024-01-15T11:31:27;97318.44;;;-1.50;100.00
71573;BME280;59408;51.032;9.410;2024-01-15T11:33:53;97311.41;;;-1.46;100.00
71573;BME280;59408;51.032;9.410;2024-01-15T11:36:20;97317.78;;;-1.33;100.00
71573;BME280;59408;51.032;9.410;2024-01-15T11:38:47;97309.72;;;-1.19;100.00
71573;BME280;59408;51.032;9.410;2024-01-15T11:41:14;97314.88;;;-1.23;100.00
71573;BME280;59408;51.032;9.410;2024-01-15T11:43:41;97319.25;;;-1.27;100.00
71573;BME280;59408;51.032;9.410;2024-01-15T11:46:12;97310.75;;;-1.29;100.00
71573;BME280;59408;51.032;9.410;2024-01-15T11:48:43;97309.66;;;-1.28;100.00
71573;BME280;59408;51.032;9.410;2024-01-15T11:51:11;97317.34;;;-1.26;100.00
71573;BME280;59408;51.032;9.410;2024-01-15T11:53:43;97318.16;;;-1.26;100.00
71573;BME280;59408;51.032;9.410;2024-01-15T11:56:14;97311.41;;;-1.23;100.00
71573;BME280;59408;51.032;9.410;2024-01-15T11:58:41;97309.38;;;-1.18;100.00
71573;BME280;59408;51.032;9.410;2024-01-15T12:01:10;97309.53;;;-1.23;100.00
71573;BME280;59408;51.032;9.410;2024-01-15T12:03:38;97314.13;;;-1.15;100.00
71573;BME280;59408;51.032;9.410;2024-01-15T12:06:05;97306.41;;;-1.16;100.00
71573;BME280;59408;51.032;9.410;2024-01-15T12:08:32;97314.19;;;-1.06;100.00
71573;BME280;59408;51.032;9.410;2024-01-15T12:10:58;97307.75;;;-1.05;100.00
71573;BME280;59408;51.032;9.410;2024-01-15T12:13:25;97298.19;;;-0.97;100.00
71573;BME280;59408;51.032;9.410;2024-01-15T12:15:54;97307.19;;;-0.93;100.00
71573;BME280;59408;51.032;9.410;2024-01-15T12:18:20;97312.56;;;-0.93;100.00
71573;BME280;59408;51.032;9.410;2024-01-15T12:20:49;97317.59;;;-0.92;100.00
71573;BME280;59408;51.032;9.410;2024-01-15T12:23:16;97322.31;;;-0.89;100.00
71573;BME280;59408;51.032;9.410;2024-01-15T12:25:44;97315.72;;;-0.91;100.00
71573;BME280;59408;51.032;9.410;2024-01-15T12:28:11;97321.66;;;-0.94;100.00
71573;BME280;59408;51.032;9.410;2024-01-15T12:30:38;97316.06;;;-1.07;100.00
71573;BME280;59408;51.032;9.410;2024-01-15T12:33:06;97323.16;;;-1.11;100.00
71573;BME280;59408;51.032;9.410;2024-01-15T12:35:34;97318.41;;;-1.14;100.00
71573;BME280;59408;51.032;9.410;2024-01-15T12:38:02;97315.28;;;-1.07;100.00
71573;BME280;59408;51.032;9.410;2024-01-15T12:40:30;97316.28;;;-1.03;100.00
71573;BME280;59408;51.032;9.410;2024-01-15T12:42:57;97314.03;;;-1.10;100.00
71573;BME280;59408;51.032;9.410;2024-01-15T12:45:24;97313.66;;;-1.17;100.00
71573;BME280;59408;51.032;9.410;2024-01-15T12:47:50;97325.09;;;-1.25;100.00
71573;BME280;59408;51.032;9.410;2024-01-15T12:50:17;97322.72;;;-1.26;100.00